createdAt,value
2018-12-30T00:01:14.296Z,30.33
2018-12-30T00:03:43.478Z,32.37
2018-12-30T00:06:12.249Z,32.77
2018-12-30T00:08:41.028Z,34.57
2018-12-30T00:11:09.537Z,33.33
2018-12-30T00:13:37.849Z,34.53
2018-12-30T00:16:06.909Z,34.23
2018-12-30T00:18:35.228Z,31.90
2018-12-30T00:21:09.007Z,31.23
2018-12-30T00:23:33.937Z,29.33
2018-12-30T00:26:02.369Z,32.17
2018-12-30T00:28:30.745Z,32.00
2018-12-30T00:30:59.119Z,32.60
2018-12-30T00:33:27.520Z,30.37
2018-12-30T00:35:55.938Z,31.33
2018-12-30T00:38:24.417Z,30.67
2018-12-30T00:40:53.005Z,30.03
2018-12-30T00:43:21.803Z,31.13
2018-12-30T00:45:50.268Z,30.40
2018-12-30T00:48:18.965Z,31.93
2018-12-30T00:50:47.426Z,30.97
2018-12-30T00:53:15.742Z,29.47
2018-12-30T00:55:44.162Z,32.20
2018-12-30T00:58:12.573Z,30.77
2018-12-30T01:00:41.064Z,30.93
2018-12-30T01:03:10.094Z,29.27
2018-12-30T01:05:38.585Z,25.00
2018-12-30T01:08:07.202Z,22.83
2018-12-30T01:10:35.766Z,21.80
2018-12-30T01:13:04.134Z,19.83
2018-12-30T01:15:32.641Z,19.97
2018-12-30T01:18:00.953Z,20.03
2018-12-30T01:20:29.413Z,20.83
2018-12-30T01:22:57.725Z,18.40
2018-12-30T01:25:26.173Z,21.07
2018-12-30T01:27:54.536Z,21.03
2018-12-30T01:30:23.794Z,19.50
2018-12-30T01:32:52.376Z,20.07
2018-12-30T01:35:20.749Z,17.90
2018-12-30T01:37:49.202Z,16.40
2018-12-30T01:40:17.510Z,15.80
2018-12-30T01:42:46.044Z,14.73
2018-12-30T01:45:14.445Z,16.83
2018-12-30T01:47:42.973Z,15.70
2018-12-30T01:50:11.482Z,17.20
2018-12-30T01:52:39.942Z,17.30
2018-12-30T01:55:08.245Z,17.33
2018-12-30T01:57:37.097Z,17.60
2018-12-30T02:00:05.526Z,20.60
2018-12-30T02:02:34.928Z,23.27
2018-12-30T02:05:03.517Z,24.63
2018-12-30T02:07:33.454Z,24.97
2018-12-30T02:10:01.979Z,25.53
2018-12-30T02:12:30.421Z,28.70
2018-12-30T02:14:58.805Z,34.83
2018-12-30T02:17:27.173Z,38.90
2018-12-30T02:19:55.634Z,43.67
2018-12-30T02:22:23.949Z,49.10
2018-12-30T02:24:52.410Z,51.13
2018-12-30T02:27:21.201Z,56.57
2018-12-30T02:29:49.635Z,59.90
2018-12-30T02:32:18.030Z,60.70
2018-12-30T02:34:46.447Z,59.80
2018-12-30T02:37:14.883Z,62.80
2018-12-30T02:39:43.338Z,62.80
2018-12-30T02:42:11.670Z,62.43
2018-12-30T02:44:40.182Z,69.97
2018-12-30T02:47:08.548Z,66.00
2018-12-30T02:49:37.413Z,65.73
2018-12-30T02:52:05.720Z,64.37
2018-12-30T02:54:34.240Z,62.30
2018-12-30T02:57:02.734Z,61.20
2018-12-30T02:59:31.137Z,61.00
2018-12-30T03:01:59.820Z,63.53
2018-12-30T03:04:28.242Z,60.97
2018-12-30T03:06:56.653Z,60.93
2018-12-30T03:09:25.017Z,59.47
2018-12-30T03:11:53.381Z,58.87
2018-12-30T03:14:22.349Z,56.77
2018-12-30T03:16:50.752Z,57.10
2018-12-30T03:19:19.117Z,53.23
2018-12-30T03:21:47.588Z,51.97
2018-12-30T03:24:16.011Z,47.40
2018-12-30T03:26:44.893Z,39.97
2018-12-30T03:29:13.418Z,40.03
2018-12-30T03:31:41.911Z,45.83
2018-12-30T03:34:10.406Z,42.70
2018-12-30T03:36:38.905Z,42.13
2018-12-30T03:39:07.845Z,38.50
2018-12-30T03:41:36.158Z,36.47
2018-12-30T03:44:04.613Z,32.13
2018-12-30T03:46:34.571Z,30.23
2018-12-30T03:49:02.973Z,28.10
2018-12-30T03:51:31.289Z,26.47
2018-12-30T03:53:59.769Z,24.43
2018-12-30T03:56:28.153Z,26.13
2018-12-30T03:58:56.542Z,23.60
2018-12-30T04:01:24.937Z,22.33
2018-12-30T04:03:53.313Z,22.83
2018-12-30T04:06:21.709Z,24.33
2018-12-30T04:08:50.109Z,24.93
2018-12-30T04:11:18.483Z,24.20
2018-12-30T04:13:46.953Z,25.57
2018-12-30T04:16:15.257Z,28.27
2018-12-30T04:18:43.681Z,31.13
2018-12-30T04:21:12.052Z,34.60
2018-12-30T04:23:40.417Z,38.83
2018-12-30T04:26:08.881Z,41.40
2018-12-30T04:28:37.189Z,40.87
2018-12-30T04:31:05.684Z,40.67
2018-12-30T04:33:34.081Z,36.17
2018-12-30T04:36:02.578Z,39.37
2018-12-30T04:38:31.103Z,37.23
2018-12-30T04:40:59.685Z,38.70
2018-12-30T04:43:28.478Z,39.03
2018-12-30T04:45:56.967Z,42.33
2018-12-30T04:48:25.496Z,41.53
2018-12-30T04:50:53.979Z,44.73
2018-12-30T04:53:22.457Z,45.00
2018-12-30T04:55:50.769Z,45.67
2018-12-30T04:58:19.705Z,49.43
2018-12-30T05:00:48.008Z,50.30
2018-12-30T05:03:16.445Z,50.17
2018-12-30T05:05:44.844Z,51.23
2018-12-30T05:08:13.414Z,53.83
2018-12-30T05:10:41.781Z,53.73
2018-12-30T05:13:10.285Z,51.60
2018-12-30T05:15:38.621Z,52.93
2018-12-30T05:18:07.077Z,52.97
2018-12-30T05:20:35.397Z,53.53
2018-12-30T05:23:03.833Z,53.00
2018-12-30T05:25:34.397Z,57.20
2018-12-30T05:28:02.765Z,58.93
2018-12-30T05:30:31.157Z,61.20
2018-12-30T05:32:59.586Z,62.07
2018-12-30T05:35:27.897Z,64.17
2018-12-30T05:37:56.326Z,65.47
2018-12-30T05:40:24.717Z,68.47
2018-12-30T05:42:53.131Z,71.53
2018-12-30T05:45:21.501Z,75.10
2018-12-30T05:47:50.013Z,78.47
2018-12-30T05:50:18.542Z,82.55
2018-12-30T05:52:47.049Z,76.93
2018-12-30T05:55:15.533Z,77.13
2018-12-30T05:57:43.993Z,79.53
2018-12-30T06:00:12.664Z,72.57
2018-12-30T06:02:42.888Z,77.90
2018-12-30T06:05:11.313Z,75.67
2018-12-30T06:07:39.805Z,75.10
2018-12-30T06:10:08.321Z,73.57
2018-12-30T06:12:36.753Z,77.80
2018-12-30T06:15:05.956Z,77.27
2018-12-30T06:17:34.469Z,76.53
2018-12-30T06:20:02.818Z,74.90
2018-12-30T06:22:31.277Z,75.50
2018-12-30T06:24:59.591Z,74.07
2018-12-30T06:27:28.014Z,76.57
2018-12-30T06:29:56.405Z,75.53
2018-12-30T06:32:24.903Z,89.65
2018-12-30T06:34:53.389Z,80.83
2018-12-30T06:37:22.940Z,75.70
2018-12-30T06:39:51.442Z,74.27
2018-12-30T06:42:19.923Z,76.53
2018-12-30T06:44:48.350Z,82.23
2018-12-30T06:47:16.660Z,80.60
2018-12-30T06:49:46.191Z,83.60
2018-12-30T06:52:14.512Z,80.17
2018-12-30T06:54:42.997Z,90.90
2018-12-30T06:57:11.415Z,77.30
2018-12-30T06:59:39.918Z,74.87
2018-12-30T07:02:08.425Z,72.97
2018-12-30T07:04:36.982Z,71.10
2018-12-30T07:07:05.293Z,70.67
2018-12-30T07:09:33.715Z,70.83
2018-12-30T07:12:02.154Z,69.13
2018-12-30T07:14:30.669Z,67.10
2018-12-30T07:16:59.153Z,68.73
2018-12-30T07:19:27.622Z,69.30
2018-12-30T07:21:56.114Z,66.63
2018-12-30T07:24:24.414Z,65.33
2018-12-30T07:26:52.894Z,65.37
2018-12-30T07:29:21.329Z,66.23
2018-12-30T07:31:49.668Z,66.83
2018-12-30T07:34:18.081Z,74.10
2018-12-30T07:36:46.453Z,72.97
2018-12-30T07:39:14.818Z,73.10
2018-12-30T07:41:43.181Z,70.73
2018-12-30T07:44:11.737Z,62.30
2018-12-30T07:46:40.305Z,59.77
2018-12-30T07:49:08.615Z,56.97
2018-12-30T07:51:37.082Z,55.63
2018-12-30T07:54:05.480Z,52.87
2018-12-30T07:56:33.854Z,51.87
2018-12-30T07:59:02.357Z,59.50
2018-12-30T08:01:30.761Z,52.93
2018-12-30T08:03:59.260Z,51.90
2018-12-30T08:06:27.706Z,50.00
2018-12-30T08:08:56.121Z,45.67
2018-12-30T08:11:24.641Z,44.53
2018-12-30T08:13:53.137Z,42.23
2018-12-30T08:16:22.650Z,42.90
2018-12-30T08:18:51.669Z,40.00
2018-12-30T08:21:20.137Z,39.00
2018-12-30T08:23:48.454Z,39.37
2018-12-30T08:26:16.926Z,40.13
2018-12-30T08:28:45.464Z,37.30
2018-12-30T08:31:14.203Z,39.60
2018-12-30T08:33:42.585Z,37.90
2018-12-30T08:36:11.102Z,38.73
2018-12-30T08:38:39.594Z,39.70
2018-12-30T08:41:08.117Z,38.27
2018-12-30T08:43:36.642Z,37.93
2018-12-30T08:46:06.345Z,37.93
2018-12-30T08:48:34.829Z,38.67
2018-12-30T08:51:03.139Z,37.47
2018-12-30T08:53:31.599Z,36.53
2018-12-30T08:56:00.065Z,34.83
2018-12-30T08:58:31.944Z,35.63
2018-12-30T09:01:00.585Z,36.00
2018-12-30T09:03:29.069Z,35.23
2018-12-30T09:05:57.388Z,34.00
2018-12-30T09:08:25.873Z,35.50
2018-12-30T09:10:55.295Z,35.03
2018-12-30T09:13:23.913Z,35.60
2018-12-30T09:15:52.495Z,39.27
2018-12-30T09:18:21.242Z,44.50
2018-12-30T09:20:49.679Z,63.67
2018-12-30T09:23:19.287Z,46.90
2018-12-30T09:25:48.126Z,48.33
2018-12-30T09:28:16.507Z,48.93
2018-12-30T09:30:45.065Z,49.83
2018-12-30T09:33:13.445Z,49.77
2018-12-30T09:35:41.840Z,51.03
2018-12-30T09:38:10.219Z,52.70
2018-12-30T09:40:38.673Z,58.53
2018-12-30T09:43:07.053Z,55.47
2018-12-30T09:45:35.545Z,55.20
2018-12-30T09:48:04.012Z,55.37
2018-12-30T09:50:32.318Z,55.03
2018-12-30T09:53:00.876Z,53.47
2018-12-30T09:55:29.207Z,52.80
2018-12-30T09:57:57.686Z,52.03
2018-12-30T10:00:25.993Z,51.20
2018-12-30T10:02:54.429Z,49.77
2018-12-30T10:05:23.694Z,52.27
2018-12-30T10:07:52.235Z,50.87
2018-12-30T10:10:20.777Z,51.07
2018-12-30T10:12:49.265Z,51.17
2018-12-30T10:15:17.580Z,43.83
2018-12-30T10:17:46.061Z,52.30
2018-12-30T10:20:15.286Z,49.70
2018-12-30T10:22:43.768Z,49.10
2018-12-30T10:25:12.113Z,44.47
2018-12-30T10:27:40.571Z,45.90
2018-12-30T10:30:09.597Z,38.90
2018-12-30T10:32:38.196Z,43.27
2018-12-30T10:35:06.662Z,36.90
2018-12-30T10:37:35.174Z,37.77
2018-12-30T10:40:03.897Z,35.93
2018-12-30T10:42:32.421Z,26.00
2018-12-30T10:45:01.249Z,31.67
2018-12-30T10:47:29.934Z,31.70
2018-12-30T10:49:58.398Z,34.23
2018-12-30T10:52:26.709Z,28.87
2018-12-30T10:54:55.141Z,30.73
2018-12-30T10:57:24.117Z,32.70
2018-12-30T10:59:52.582Z,30.50
2018-12-30T11:02:22.041Z,24.93
2018-12-30T11:04:50.729Z,21.60
2018-12-30T11:07:19.271Z,23.97
2018-12-30T11:09:47.693Z,27.23
2018-12-30T11:12:16.394Z,26.07
2018-12-30T11:14:44.975Z,23.47
2018-12-30T11:17:13.585Z,24.17
2018-12-30T11:19:42.114Z,24.83
2018-12-30T11:22:10.609Z,27.27
2018-12-30T11:24:39.139Z,43.00
2018-12-30T11:27:08.339Z,89.20
2018-12-30T11:29:37.052Z,43.00
2018-12-30T11:32:05.636Z,86.00
2018-12-30T11:34:33.965Z,50.87
2018-12-30T11:37:04.435Z,40.57
2018-12-30T11:39:33.641Z,34.73
2018-12-30T11:42:04.345Z,28.90
2018-12-30T11:44:32.855Z,25.37
2018-12-30T11:47:02.208Z,24.37
2018-12-30T11:49:30.989Z,26.63
2018-12-30T11:51:59.437Z,25.67
2018-12-30T11:54:27.853Z,28.03
2018-12-30T11:56:56.230Z,28.43
2018-12-30T11:59:24.623Z,25.63
2018-12-30T12:01:53.105Z,26.40
2018-12-30T12:04:21.439Z,24.63
2018-12-30T12:06:51.094Z,24.67
2018-12-30T12:09:19.632Z,25.90
2018-12-30T12:11:48.034Z,26.07
2018-12-30T12:14:16.473Z,26.37
2018-12-30T12:16:44.942Z,25.97
2018-12-30T12:19:13.715Z,28.60
2018-12-30T12:21:42.172Z,38.37
2018-12-30T12:24:10.586Z,28.40
2018-12-30T12:26:38.994Z,30.33
2018-12-30T12:29:07.377Z,47.47
2018-12-30T12:31:35.862Z,29.53
2018-12-30T12:34:04.226Z,32.77
2018-12-30T12:36:32.714Z,31.50
2018-12-30T12:39:01.013Z,31.20
2018-12-30T12:41:30.617Z,32.47
2018-12-30T12:43:58.962Z,29.47
2018-12-30T12:46:27.441Z,27.37
2018-12-30T12:48:55.768Z,25.63
2018-12-30T12:51:24.406Z,25.50
2018-12-30T12:53:52.737Z,25.00
2018-12-30T12:56:21.325Z,25.90
2018-12-30T12:58:49.638Z,27.80
2018-12-30T13:01:18.168Z,25.90
2018-12-30T13:03:47.001Z,27.73
2018-12-30T13:06:15.538Z,29.87
2018-12-30T13:08:44.061Z,27.87
2018-12-30T13:11:12.562Z,27.30
2018-12-30T13:13:40.888Z,26.80
2018-12-30T13:16:09.327Z,27.83
2018-12-30T13:18:37.743Z,30.77
2018-12-30T13:21:06.251Z,27.23
2018-12-30T13:23:34.725Z,27.93
2018-12-30T13:26:04.345Z,28.50
2018-12-30T13:28:32.787Z,26.77
2018-12-30T13:31:01.161Z,28.60
2018-12-30T13:33:29.824Z,30.97
2018-12-30T13:35:58.350Z,33.47
2018-12-30T13:38:28.414Z,34.07
2018-12-30T13:40:56.956Z,35.07
2018-12-30T13:43:25.266Z,32.87
2018-12-30T13:45:53.757Z,32.77
2018-12-30T13:48:22.065Z,33.47
2018-12-30T13:50:50.566Z,33.63
2018-12-30T13:53:18.941Z,33.97
2018-12-30T13:55:48.746Z,33.83
2018-12-30T13:58:17.378Z,34.50
2018-12-30T14:00:46.538Z,35.60
2018-12-30T14:03:15.261Z,33.87
2018-12-30T14:05:43.917Z,33.90
2018-12-30T14:08:15.407Z,40.33
2018-12-30T14:10:44.237Z,45.40
2018-12-30T14:13:13.153Z,46.43
2018-12-30T14:15:41.562Z,46.80
2018-12-30T14:18:10.090Z,49.23
2018-12-30T14:20:45.617Z,52.67
2018-12-30T14:23:14.070Z,54.27
2018-12-30T14:25:42.446Z,53.17
2018-12-30T14:28:10.945Z,49.87
2018-12-30T14:30:39.268Z,53.63
2018-12-30T14:33:07.710Z,53.73
2018-12-30T14:35:36.115Z,52.67
2018-12-30T14:38:04.990Z,50.57
2018-12-30T14:40:33.388Z,51.70
2018-12-30T14:43:02.061Z,51.53
2018-12-30T14:45:30.955Z,49.47
2018-12-30T14:47:59.400Z,51.57
2018-12-30T14:50:27.865Z,53.80
2018-12-30T14:52:56.322Z,51.07
2018-12-30T14:55:24.845Z,51.50
2018-12-30T14:57:53.314Z,52.43
2018-12-30T15:00:21.650Z,56.97
2018-12-30T15:02:50.098Z,58.67
2018-12-30T15:05:18.557Z,58.07
2018-12-30T15:07:46.931Z,55.13
2018-12-30T15:10:15.547Z,59.73
2018-12-30T15:12:43.877Z,58.77
2018-12-30T15:15:12.421Z,61.40
2018-12-30T15:17:40.902Z,60.70
2018-12-30T15:20:09.532Z,62.50
2018-12-30T15:22:38.106Z,61.40
2018-12-30T15:25:11.664Z,61.00
2018-12-30T15:27:37.149Z,60.33
2018-12-30T15:30:07.190Z,62.83
2018-12-30T15:32:35.585Z,63.13
2018-12-30T15:35:04.426Z,64.97
2018-12-30T15:37:32.801Z,70.53
2018-12-30T15:40:01.169Z,74.33
2018-12-30T15:42:29.851Z,71.10
2018-12-30T15:44:58.187Z,72.30
2018-12-30T15:47:27.416Z,73.30
2018-12-30T15:49:55.840Z,74.13
2018-12-30T15:52:24.225Z,75.30
2018-12-30T15:54:53.535Z,72.93
2018-12-30T15:57:22.089Z,66.50
2018-12-30T15:59:50.395Z,67.83
2018-12-30T16:02:18.967Z,69.60
2018-12-30T16:04:47.479Z,67.97
2018-12-30T16:07:16.057Z,70.63
2018-12-30T16:09:44.590Z,73.40
2018-12-30T16:12:12.977Z,78.37
2018-12-30T16:14:41.461Z,75.90
2018-12-30T16:17:09.780Z,75.50
2018-12-30T16:19:38.241Z,77.07
2018-12-30T16:22:06.558Z,75.83
2018-12-30T16:24:35.020Z,76.73
2018-12-30T16:27:04.558Z,79.60
2018-12-30T16:29:33.294Z,79.90
2018-12-30T16:32:01.609Z,77.33
2018-12-30T16:34:30.053Z,74.50
2018-12-30T16:36:58.370Z,75.03
2018-12-30T16:39:26.918Z,71.50
2018-12-30T16:41:55.241Z,70.83
2018-12-30T16:44:23.625Z,64.87
2018-12-30T16:46:51.941Z,58.30
2018-12-30T16:49:20.305Z,50.13
2018-12-30T16:51:52.746Z,47.63
2018-12-30T16:54:22.523Z,44.60
2018-12-30T16:57:01.799Z,43.27
2018-12-30T16:59:36.605Z,42.93
2018-12-30T17:02:06.570Z,43.37
2018-12-30T17:04:35.045Z,41.70
2018-12-30T17:07:03.593Z,41.77
2018-12-30T17:09:31.938Z,41.63
2018-12-30T17:12:00.397Z,42.60
2018-12-30T17:14:28.815Z,41.00
2018-12-30T17:16:57.297Z,41.90
2018-12-30T17:19:25.709Z,40.43
2018-12-30T17:21:54.212Z,38.37
2018-12-30T17:24:22.650Z,41.20
2018-12-30T17:26:51.061Z,38.00
2018-12-30T17:29:21.499Z,38.20
2018-12-30T17:31:50.069Z,39.83
2018-12-30T17:34:18.382Z,38.43
2018-12-30T17:36:48.029Z,36.77
2018-12-30T17:39:17.402Z,38.93
2018-12-30T17:41:45.896Z,38.57
2018-12-30T17:44:14.257Z,45.48
2018-12-30T17:46:42.717Z,41.57
2018-12-30T17:49:11.202Z,40.13
2018-12-30T17:51:39.594Z,39.37
2018-12-30T17:54:15.022Z,38.03
2018-12-30T17:56:38.233Z,37.53
2018-12-30T17:59:06.865Z,39.60
2018-12-30T18:01:35.641Z,37.80
2018-12-30T18:04:06.589Z,35.70
2018-12-30T18:06:34.994Z,36.90
2018-12-30T18:09:04.470Z,35.20
2018-12-30T18:11:34.632Z,33.87
2018-12-30T18:14:02.950Z,34.23
2018-12-30T18:16:31.437Z,34.10
2018-12-30T18:18:59.772Z,33.93
2018-12-30T18:21:28.585Z,31.73
2018-12-30T18:23:57.014Z,31.27
2018-12-30T18:26:25.609Z,31.87
2018-12-30T18:28:54.517Z,31.03
2018-12-30T18:31:23.005Z,27.37
2018-12-30T18:33:52.408Z,25.03
2018-12-30T18:36:20.897Z,25.93
2018-12-30T18:38:49.205Z,22.50
2018-12-30T18:41:17.745Z,22.03
2018-12-30T18:43:47.240Z,21.17
2018-12-30T18:46:15.706Z,20.33
2018-12-30T18:48:44.125Z,20.70
2018-12-30T18:51:12.641Z,18.23
2018-12-30T18:53:41.153Z,18.47
2018-12-30T18:56:10.814Z,18.53
2018-12-30T18:58:39.153Z,18.10
2018-12-30T19:01:07.551Z,18.40
2018-12-30T19:03:35.957Z,18.47
2018-12-30T19:06:04.318Z,19.10
2018-12-30T19:08:32.840Z,18.20
2018-12-30T19:11:01.635Z,16.70
2018-12-30T19:13:30.130Z,18.37
2018-12-30T19:15:58.633Z,19.57
2018-12-30T19:18:27.094Z,17.60
2018-12-30T19:20:55.411Z,17.07
2018-12-30T19:23:23.907Z,16.90
2018-12-30T19:25:52.291Z,17.13
2018-12-30T19:28:20.758Z,18.90
2018-12-30T19:30:49.101Z,18.60
2018-12-30T19:33:17.576Z,17.30
2018-12-30T19:35:45.901Z,18.53
2018-12-30T19:38:14.445Z,16.80
2018-12-30T19:40:42.942Z,15.00
2018-12-30T19:43:11.265Z,16.87
2018-12-30T19:49:13.725Z,16.80
2018-12-30T19:51:42.143Z,14.73
2018-12-30T19:54:10.558Z,17.55
2018-12-30T19:56:39.039Z,15.43
2018-12-30T19:59:07.589Z,15.63
2018-12-30T20:01:36.716Z,12.97
2018-12-30T20:04:07.629Z,13.40
2018-12-30T20:06:36.307Z,11.43
2018-12-30T20:09:06.896Z,11.40
2018-12-30T20:11:35.563Z,8.13
2018-12-30T20:14:04.067Z,7.93
2018-12-30T20:16:32.662Z,7.10
2018-12-30T20:19:01.054Z,7.72
2018-12-30T20:21:29.509Z,5.43
2018-12-30T20:23:57.914Z,5.20
2018-12-30T20:26:30.031Z,5.47
2018-12-30T20:28:56.473Z,4.63
2018-12-30T20:31:24.974Z,4.97
2018-12-30T20:33:53.281Z,5.43
2018-12-30T20:36:21.861Z,4.00
2018-12-30T20:38:50.218Z,4.07
2018-12-30T20:41:19.017Z,3.87
2018-12-30T20:43:47.505Z,4.40
2018-12-30T20:46:15.882Z,4.50
2018-12-30T20:48:44.282Z,6.10
2018-12-30T20:51:12.665Z,8.47
2018-12-30T20:53:41.099Z,7.47
2018-12-30T20:56:09.597Z,7.67
2018-12-30T20:58:38.053Z,6.60
2018-12-30T21:01:06.562Z,7.13
2018-12-30T21:03:34.951Z,8.47
2018-12-30T21:06:03.678Z,8.23
2018-12-30T21:08:32.105Z,7.87
2018-12-30T21:11:02.126Z,5.93
2018-12-30T21:13:30.678Z,5.27
2018-12-30T21:15:59.408Z,4.87
2018-12-30T21:18:27.981Z,4.63
2018-12-30T21:20:56.521Z,5.63
2018-12-30T21:23:25.154Z,5.33
2018-12-30T21:25:53.581Z,5.10
2018-12-30T21:28:22.346Z,5.27
2018-12-30T21:30:51.014Z,4.00
2018-12-30T21:33:19.617Z,4.40
2018-12-30T21:35:48.154Z,4.20
2018-12-30T21:38:16.654Z,3.33
2018-12-30T21:40:45.137Z,3.57
2018-12-30T21:43:14.100Z,6.03
2018-12-30T21:45:42.457Z,5.70
2018-12-30T21:48:10.869Z,4.17
2018-12-30T21:50:39.203Z,4.43
2018-12-30T21:53:07.513Z,3.30
2018-12-30T21:55:35.921Z,3.80
2018-12-30T21:58:04.900Z,4.30
2018-12-30T22:00:33.344Z,4.55
2018-12-30T22:03:01.813Z,4.70
2018-12-30T22:05:30.223Z,5.97
2018-12-30T22:07:58.605Z,5.97
2018-12-30T22:10:27.122Z,7.10
2018-12-30T22:12:55.598Z,7.80
2018-12-30T22:15:24.089Z,5.63
2018-12-30T22:17:52.410Z,5.23
2018-12-30T22:20:20.870Z,4.57
2018-12-30T22:22:49.267Z,4.70
2018-12-30T22:25:17.658Z,5.67
2018-12-30T22:27:46.114Z,5.50
2018-12-30T22:30:15.362Z,5.13
2018-12-30T22:32:43.759Z,4.87
2018-12-30T22:35:12.203Z,4.67
2018-12-30T22:37:40.526Z,5.00
2018-12-30T22:40:09.043Z,5.13
2018-12-30T22:42:37.345Z,5.63
2018-12-30T22:45:05.973Z,5.43
2018-12-30T22:47:34.394Z,5.30
2018-12-30T22:50:02.975Z,5.23
2018-12-30T22:52:31.609Z,5.60
2018-12-30T22:55:00.256Z,5.27
2018-12-30T22:57:28.705Z,6.63
2018-12-30T22:59:57.474Z,9.30
2018-12-30T23:02:25.793Z,8.80
2018-12-30T23:04:54.552Z,6.73
2018-12-30T23:07:22.764Z,6.33
2018-12-30T23:09:50.950Z,6.00
2018-12-30T23:12:19.173Z,5.27
2018-12-30T23:14:47.864Z,4.90
2018-12-30T23:17:16.184Z,4.43
2018-12-30T23:19:44.463Z,3.47
2018-12-30T23:22:12.596Z,3.20
2018-12-30T23:24:40.910Z,3.63
2018-12-30T23:27:09.128Z,3.40
2018-12-30T23:29:37.409Z,3.10
2018-12-30T23:32:05.538Z,3.10
2018-12-30T23:34:33.816Z,3.60
2018-12-30T23:37:01.937Z,3.67
2018-12-30T23:39:30.174Z,3.93
2018-12-30T23:41:58.408Z,4.60
2018-12-30T23:44:26.713Z,4.30
2018-12-30T23:46:54.988Z,4.97
2018-12-30T23:49:23.228Z,4.20
2018-12-30T23:51:51.408Z,4.20
2018-12-30T23:54:19.681Z,4.10
2018-12-30T23:56:47.800Z,5.07
2018-12-30T23:59:17.097Z,4.83
